createdAt,value
2019-05-14T00:00:57.169Z,13.00
2019-05-14T00:03:30.988Z,13.00
2019-05-14T00:06:02.450Z,13.00
2019-05-14T00:08:34.103Z,12.90
2019-05-14T00:11:05.857Z,13.00
2019-05-14T00:13:37.588Z,12.90
2019-05-14T00:16:11.739Z,12.90
2019-05-14T00:18:42.729Z,12.80
2019-05-14T00:21:14.488Z,12.80
2019-05-14T00:23:46.237Z,12.80
2019-05-14T00:26:18.005Z,12.70
2019-05-14T00:28:51.239Z,12.70
2019-05-14T00:31:23.235Z,12.70
2019-05-14T00:33:56.120Z,12.60
2019-05-14T00:36:28.008Z,12.60
2019-05-14T00:39:01.675Z,12.60
2019-05-14T00:41:33.066Z,12.50
2019-05-14T00:44:04.855Z,12.50
2019-05-14T00:46:36.663Z,12.50
2019-05-14T00:49:08.333Z,12.40
2019-05-14T00:51:41.279Z,12.40
2019-05-14T00:54:13.113Z,12.30
2019-05-14T00:56:44.806Z,12.30
2019-05-14T00:59:16.481Z,12.30
2019-05-14T01:01:48.180Z,12.30
2019-05-14T01:04:22.105Z,12.20
2019-05-14T01:06:53.295Z,12.20
2019-05-14T01:09:24.955Z,12.10
2019-05-14T01:11:56.747Z,12.10
2019-05-14T01:14:28.443Z,12.10
2019-05-14T01:17:02.042Z,12.00
2019-05-14T01:19:33.703Z,12.00
2019-05-14T01:22:05.457Z,11.90
2019-05-14T01:24:37.191Z,11.90
2019-05-14T01:27:08.882Z,11.90
2019-05-14T01:29:42.423Z,11.90
2019-05-14T01:32:15.449Z,11.80
2019-05-14T01:34:47.178Z,11.80
2019-05-14T01:37:18.887Z,11.70
2019-05-14T01:39:52.265Z,11.70
2019-05-14T01:42:23.947Z,11.70
2019-05-14T01:44:57.095Z,11.60
2019-05-14T01:47:28.841Z,11.60
2019-05-14T01:50:02.111Z,11.60
2019-05-14T01:52:33.986Z,11.50
2019-05-14T01:55:06.174Z,11.50
2019-05-14T01:57:37.869Z,11.50
2019-05-14T02:00:11.485Z,11.50
2019-05-14T02:02:43.298Z,11.50
2019-05-14T02:05:15.077Z,11.40
2019-05-14T02:07:46.770Z,11.40
2019-05-14T02:10:19.079Z,11.40
2019-05-14T02:12:51.509Z,11.30
2019-05-14T02:15:36.349Z,11.30
2019-05-14T02:17:56.717Z,11.30
2019-05-14T02:20:28.428Z,11.30
2019-05-14T02:23:01.477Z,11.30
2019-05-14T02:25:33.395Z,11.20
2019-05-14T02:28:05.077Z,11.20
2019-05-14T02:30:48.329Z,11.20
2019-05-14T02:33:10.154Z,11.20
2019-05-14T02:35:41.857Z,11.10
2019-05-14T02:38:13.509Z,11.10
2019-05-14T02:40:45.300Z,11.10
2019-05-14T02:43:20.015Z,11.10
2019-05-14T02:46:09.542Z,11.00
2019-05-14T02:48:23.972Z,11.00
2019-05-14T02:50:55.708Z,11.00
2019-05-14T02:53:29.721Z,10.90
2019-05-14T02:56:00.916Z,10.90
2019-05-14T02:58:32.633Z,10.80
2019-05-14T03:01:04.477Z,10.80
2019-05-14T03:03:36.193Z,10.80
2019-05-14T03:06:09.447Z,10.80
2019-05-14T03:08:41.292Z,10.70
2019-05-14T03:11:12.928Z,10.70
2019-05-14T03:13:44.610Z,10.70
2019-05-14T03:16:26.010Z,10.70
2019-05-14T03:18:50.485Z,10.60
2019-05-14T03:21:22.436Z,10.60
2019-05-14T03:23:54.127Z,10.60
2019-05-14T03:26:28.632Z,10.60
2019-05-14T03:29:00.211Z,10.60
2019-05-14T03:31:33.516Z,10.60
2019-05-14T03:34:05.535Z,10.50
2019-05-14T03:36:42.372Z,10.50
2019-05-14T03:39:10.797Z,10.50
2019-05-14T03:41:42.474Z,10.50
2019-05-14T03:44:14.124Z,10.50
2019-05-14T03:46:54.897Z,10.50
2019-05-14T03:49:19.886Z,10.40
2019-05-14T03:51:51.823Z,10.40
2019-05-14T03:54:23.583Z,10.40
2019-05-14T03:56:55.352Z,10.40
2019-05-14T03:59:29.202Z,10.40
2019-05-14T04:02:00.433Z,10.40
2019-05-14T04:04:32.429Z,10.40
2019-05-14T04:07:09.637Z,10.30
2019-05-14T04:09:43.059Z,10.30
2019-05-14T04:12:18.992Z,10.30
2019-05-14T04:14:54.212Z,10.30
2019-05-14T04:17:36.740Z,10.30
2019-05-14T04:20:02.074Z,10.30
2019-05-14T04:22:35.246Z,10.30
2019-05-14T04:25:11.414Z,10.30
2019-05-14T04:27:49.098Z,10.30
2019-05-14T04:30:23.965Z,10.30
2019-05-14T04:32:59.215Z,10.30
2019-05-14T04:35:29.905Z,10.30
2019-05-14T04:38:01.596Z,10.30
2019-05-14T04:40:33.287Z,10.30
2019-05-14T04:43:04.974Z,10.30
2019-05-14T04:45:39.584Z,10.30
2019-05-14T04:48:27.073Z,10.30
2019-05-14T04:50:43.538Z,10.30
2019-05-14T04:53:15.196Z,10.30
2019-05-14T04:55:49.406Z,10.40
2019-05-14T04:58:21.794Z,10.40
2019-05-14T05:00:53.645Z,10.40
2019-05-14T05:03:25.348Z,10.40
2019-05-14T05:05:58.970Z,10.40
2019-05-14T05:08:31.584Z,10.40
2019-05-14T05:11:03.280Z,10.50
2019-05-14T05:13:34.954Z,10.50
2019-05-14T05:16:09.894Z,10.50
2019-05-14T05:18:41.394Z,10.50
2019-05-14T05:21:13.191Z,10.60
2019-05-14T05:23:44.972Z,10.60
2019-05-14T05:26:18.412Z,10.60
2019-05-14T05:29:02.998Z,10.60
2019-05-14T05:31:23.709Z,10.70
2019-05-14T05:33:58.174Z,10.70
2019-05-14T05:36:30.122Z,10.80
2019-05-14T05:39:01.857Z,10.80
2019-05-14T05:41:33.524Z,10.90
2019-05-14T05:44:05.361Z,10.90
2019-05-14T05:46:38.777Z,11.00
2019-05-14T05:49:11.735Z,11.00
2019-05-14T05:51:43.403Z,11.10
2019-05-14T05:54:15.138Z,11.10
2019-05-14T05:56:48.136Z,11.20
2019-05-14T05:59:21.138Z,11.20
2019-05-14T06:01:54.348Z,11.30
2019-05-14T06:04:28.751Z,11.40
2019-05-14T06:07:02.505Z,11.40
2019-05-14T06:09:33.424Z,11.50
2019-05-14T06:12:05.279Z,11.60
2019-05-14T06:14:39.006Z,11.70
2019-05-14T06:17:10.917Z,11.70
2019-05-14T06:19:43.029Z,11.80
2019-05-14T06:22:18.922Z,11.80
2019-05-14T06:24:51.515Z,11.80
2019-05-14T06:27:28.560Z,11.90
2019-05-14T06:30:01.715Z,11.90
2019-05-14T06:32:33.781Z,12.00
2019-05-14T06:35:08.579Z,12.00
2019-05-14T06:37:39.698Z,12.10
2019-05-14T06:40:12.197Z,12.10
2019-05-14T06:42:44.071Z,12.20
2019-05-14T06:45:18.672Z,12.30
2019-05-14T06:47:51.276Z,12.30
2019-05-14T06:50:24.372Z,12.40
2019-05-14T06:52:58.147Z,12.50
2019-05-14T06:55:30.242Z,12.60
2019-05-14T06:58:02.332Z,12.60
2019-05-14T07:00:34.221Z,12.70
2019-05-14T07:03:05.930Z,12.80
2019-05-14T07:05:38.971Z,12.90
2019-05-14T07:08:11.299Z,12.90
2019-05-14T07:10:43.187Z,13.00
2019-05-14T07:13:14.873Z,13.10
2019-05-14T07:15:48.726Z,13.20
2019-05-14T07:18:23.111Z,13.30
2019-05-14T07:20:58.652Z,13.30
2019-05-14T07:23:29.808Z,13.50
2019-05-14T07:26:01.696Z,13.50
2019-05-14T07:28:33.406Z,13.60
2019-05-14T07:31:05.217Z,13.60
2019-05-14T07:33:38.890Z,13.70
2019-05-14T07:36:10.502Z,13.80
2019-05-14T07:38:42.169Z,13.90
2019-05-14T07:41:13.905Z,14.00
2019-05-14T07:43:48.163Z,14.00
2019-05-14T07:46:19.432Z,14.00
2019-05-14T07:49:04.298Z,14.10
2019-05-14T07:51:28.243Z,14.10
2019-05-14T07:54:00.117Z,14.20
2019-05-14T07:56:31.932Z,14.30
2019-05-14T07:59:03.855Z,14.30
2019-05-14T08:01:35.760Z,14.40
2019-05-14T08:04:10.680Z,14.50
2019-05-14T08:06:40.981Z,14.60
2019-05-14T08:09:12.814Z,14.70
2019-05-14T08:11:45.294Z,14.90
2019-05-14T08:14:18.557Z,15.00
2019-05-14T08:16:50.482Z,15.10
2019-05-14T08:19:27.095Z,15.20
2019-05-14T08:21:58.697Z,15.20
2019-05-14T08:24:30.304Z,15.30
2019-05-14T08:27:02.323Z,15.40
2019-05-14T08:29:36.753Z,15.40
2019-05-14T08:32:08.780Z,15.50
2019-05-14T08:34:40.898Z,15.60
2019-05-14T08:37:12.771Z,15.70
2019-05-14T08:39:44.505Z,15.80
2019-05-14T08:42:18.610Z,15.80
2019-05-14T08:44:51.445Z,15.90
2019-05-14T08:47:23.455Z,16.00
2019-05-14T08:49:56.205Z,16.00
2019-05-14T08:52:28.780Z,16.10
2019-05-14T08:55:10.900Z,16.20
2019-05-14T08:57:34.279Z,16.20
2019-05-14T09:00:13.504Z,16.30
2019-05-14T09:02:40.227Z,16.40
2019-05-14T09:05:12.422Z,16.40
2019-05-14T09:07:44.121Z,16.50
2019-05-14T09:10:15.996Z,16.60
2019-05-14T09:12:49.267Z,16.70
2019-05-14T09:15:22.993Z,16.80
2019-05-14T09:17:54.689Z,16.90
2019-05-14T09:20:28.900Z,17.00
2019-05-14T09:22:59.969Z,17.10
2019-05-14T09:25:31.897Z,17.10
2019-05-14T09:28:03.701Z,17.30
2019-05-14T09:30:35.443Z,17.40
2019-05-14T09:33:08.601Z,17.50
2019-05-14T09:35:40.561Z,17.60
2019-05-14T09:38:12.418Z,17.70
2019-05-14T09:40:44.161Z,17.80
2019-05-14T09:43:19.132Z,17.90
2019-05-14T09:45:52.412Z,17.90
2019-05-14T09:48:24.123Z,18.10
2019-05-14T09:50:58.426Z,18.30
2019-05-14T09:53:29.431Z,18.40
2019-05-14T09:56:01.191Z,18.50
2019-05-14T09:58:34.087Z,18.70
2019-05-14T10:01:08.311Z,18.80
2019-05-14T10:03:39.366Z,18.90
2019-05-14T10:06:11.042Z,19.00
2019-05-14T10:08:44.231Z,19.10
2019-05-14T10:11:15.928Z,19.20
2019-05-14T10:13:48.358Z,19.40
2019-05-14T10:16:20.256Z,19.50
2019-05-14T10:18:52.935Z,19.70
2019-05-14T10:21:24.804Z,20.00
2019-05-14T10:23:58.419Z,20.30
2019-05-14T10:26:30.000Z,20.60
2019-05-14T10:29:01.747Z,21.00
2019-05-14T10:31:33.465Z,21.20
2019-05-14T10:34:05.387Z,21.40
2019-05-14T10:36:37.407Z,21.40
2019-05-14T10:39:09.631Z,21.50
2019-05-14T10:41:41.295Z,21.50
2019-05-14T10:44:14.958Z,21.50
2019-05-14T10:46:46.791Z,21.70
2019-05-14T10:49:23.496Z,21.80
2019-05-14T10:51:52.015Z,21.80
2019-05-14T10:54:26.999Z,21.90
2019-05-14T10:56:59.538Z,22.10
2019-05-14T10:59:31.450Z,22.40
2019-05-14T11:02:03.187Z,22.80
2019-05-14T11:04:38.761Z,23.20
2019-05-14T11:07:10.346Z,23.60
2019-05-14T11:09:42.716Z,23.90
2019-05-14T11:12:14.935Z,24.30
2019-05-14T11:14:49.391Z,24.70
2019-05-14T11:17:20.617Z,25.10
2019-05-14T11:19:52.373Z,25.50
2019-05-14T11:22:24.034Z,25.90
2019-05-14T11:24:58.895Z,26.30
2019-05-14T11:27:29.461Z,26.50
2019-05-14T11:30:01.164Z,26.90
2019-05-14T11:32:34.719Z,27.10
2019-05-14T11:35:12.792Z,27.30
2019-05-14T11:37:41.732Z,27.50
2019-05-14T11:40:35.518Z,27.80
2019-05-14T11:43:08.380Z,28.10
2019-05-14T11:45:40.771Z,28.50
2019-05-14T11:48:13.130Z,28.80
2019-05-14T11:50:49.123Z,29.00
2019-05-14T11:53:23.012Z,29.30
2019-05-14T11:56:03.194Z,29.50
2019-05-14T11:58:50.313Z,29.60
2019-05-14T12:01:30.014Z,29.50
2019-05-14T12:04:22.636Z,29.40
2019-05-14T12:07:04.098Z,29.10
2019-05-14T12:09:46.630Z,28.70
2019-05-14T12:12:28.833Z,28.50
2019-05-14T12:15:02.973Z,28.40
2019-05-14T12:17:39.491Z,28.40
2019-05-14T12:20:24.109Z,28.40
2019-05-14T12:23:34.433Z,28.30
2019-05-14T12:25:44.968Z,28.30
2019-05-14T12:28:31.287Z,28.30
2019-05-14T12:31:04.805Z,28.30
2019-05-14T12:33:40.008Z,28.10
2019-05-14T12:36:19.266Z,27.90
2019-05-14T12:38:54.393Z,27.80
2019-05-14T12:41:29.092Z,27.90
2019-05-14T12:44:09.352Z,28.20
2019-05-14T12:46:41.031Z,28.40
2019-05-14T12:49:13.439Z,28.70
2019-05-14T12:51:52.274Z,29.00
2019-05-14T12:54:33.521Z,29.20
2019-05-14T12:57:08.021Z,29.50
2019-05-14T12:59:49.989Z,29.70
2019-05-14T13:02:24.292Z,30.00
2019-05-14T13:05:01.172Z,30.20
2019-05-14T13:07:33.472Z,30.40
2019-05-14T13:10:08.971Z,30.60
2019-05-14T13:12:40.481Z,30.50
2019-05-14T13:15:13.916Z,30.50
2019-05-14T13:17:48.467Z,30.40
2019-05-14T13:20:20.636Z,30.40
2019-05-14T13:22:53.074Z,30.20
2019-05-14T13:25:30.515Z,29.90
2019-05-14T13:28:03.892Z,29.70
2019-05-14T13:30:36.178Z,29.40
2019-05-14T13:33:09.549Z,29.10
2019-05-14T13:35:41.851Z,28.70
2019-05-14T13:38:14.725Z,28.30
2019-05-14T13:40:49.183Z,27.80
2019-05-14T13:43:22.897Z,27.40
2019-05-14T13:45:54.672Z,26.90
2019-05-14T13:48:29.355Z,26.50
2019-05-14T13:51:01.900Z,26.10
2019-05-14T13:53:33.420Z,25.80
2019-05-14T13:56:05.317Z,25.40
2019-05-14T13:58:41.122Z,25.10
2019-05-14T14:01:12.917Z,24.80
2019-05-14T14:03:49.505Z,24.50
2019-05-14T14:06:20.746Z,24.30
2019-05-14T14:08:52.833Z,24.10
2019-05-14T14:11:24.801Z,23.90
2019-05-14T14:13:58.512Z,23.80
2019-05-14T14:16:29.956Z,23.60
2019-05-14T14:19:03.767Z,23.50
2019-05-14T14:21:35.371Z,23.30
2019-05-14T14:24:09.581Z,23.20
2019-05-14T14:26:42.101Z,23.20
2019-05-14T14:29:18.660Z,23.00
2019-05-14T14:31:54.277Z,23.00
2019-05-14T14:34:28.788Z,22.90
2019-05-14T14:37:03.887Z,22.90
2019-05-14T14:39:42.664Z,22.80
2019-05-14T14:42:14.482Z,22.70
2019-05-14T14:44:48.432Z,22.70
2019-05-14T14:47:24.090Z,22.60
2019-05-14T14:50:00.423Z,22.50
2019-05-14T14:52:32.382Z,22.50
2019-05-14T14:55:15.048Z,22.40
2019-05-14T14:57:55.267Z,22.40
2019-05-14T15:00:38.150Z,22.40
2019-05-14T15:03:10.244Z,22.30
2019-05-14T15:05:45.130Z,22.30
2019-05-14T15:08:20.057Z,22.30
2019-05-14T15:10:53.119Z,22.20
2019-05-14T15:13:27.841Z,22.20
2019-05-14T15:16:01.579Z,22.20
2019-05-14T15:18:33.428Z,22.20
2019-05-14T15:21:05.216Z,22.20
2019-05-14T15:23:42.999Z,22.30
2019-05-14T15:26:12.134Z,22.30
2019-05-14T15:28:44.240Z,22.40
2019-05-14T15:31:19.070Z,22.40
2019-05-14T15:33:51.226Z,22.40
2019-05-14T15:36:29.321Z,22.40
2019-05-14T15:39:02.299Z,22.40
2019-05-14T15:41:39.378Z,22.30
2019-05-14T15:44:10.383Z,22.30
2019-05-14T15:46:43.359Z,22.20
2019-05-14T15:49:19.128Z,22.20
2019-05-14T15:51:51.265Z,22.10
2019-05-14T15:54:39.822Z,22.00
2019-05-14T15:57:02.625Z,21.90
2019-05-14T15:59:36.286Z,21.90
2019-05-14T16:02:12.053Z,21.70
2019-05-14T16:04:43.926Z,21.60
2019-05-14T16:07:18.606Z,21.60
2019-05-14T16:09:52.229Z,21.40
2019-05-14T16:12:24.054Z,21.30
2019-05-14T16:14:57.109Z,21.20
2019-05-14T16:17:30.432Z,21.20
2019-05-14T16:20:08.749Z,21.10
2019-05-14T16:22:42.561Z,21.10
2019-05-14T16:25:19.063Z,21.00
2019-05-14T16:28:10.191Z,21.00
2019-05-14T16:30:49.664Z,20.90
2019-05-14T16:33:21.128Z,20.90
2019-05-14T16:35:52.813Z,20.90
2019-05-14T16:38:24.815Z,20.80
2019-05-14T16:40:59.705Z,20.80
2019-05-14T16:43:32.841Z,20.80
2019-05-14T16:46:04.765Z,20.80
2019-05-14T16:48:36.746Z,20.80
2019-05-14T16:51:09.062Z,20.80
2019-05-14T16:53:41.017Z,20.80
2019-05-14T16:56:14.006Z,20.80
2019-05-14T16:58:45.734Z,20.70
2019-05-14T17:01:19.219Z,20.70
2019-05-14T17:03:50.936Z,20.60
2019-05-14T17:06:22.754Z,20.60
2019-05-14T17:08:54.574Z,20.50
2019-05-14T17:11:28.241Z,20.40
2019-05-14T17:13:59.994Z,20.40
2019-05-14T17:16:31.924Z,20.40
2019-05-14T17:19:03.887Z,20.30
2019-05-14T17:21:38.983Z,20.20
2019-05-14T17:24:10.318Z,20.20
2019-05-14T17:26:42.227Z,20.10
2019-05-14T17:29:14.200Z,20.10
2019-05-14T17:31:45.987Z,20.00
2019-05-14T17:34:18.643Z,19.90
2019-05-14T17:36:50.445Z,19.90
2019-05-14T17:39:22.446Z,19.80
2019-05-14T17:41:54.283Z,19.80
2019-05-14T17:44:26.159Z,19.70
2019-05-14T17:46:59.411Z,19.60
2019-05-14T17:49:33.974Z,19.60
2019-05-14T17:52:07.078Z,19.50
2019-05-14T17:54:41.968Z,19.50
2019-05-14T17:57:14.981Z,19.40
2019-05-14T17:59:49.556Z,19.40
2019-05-14T18:02:20.762Z,19.30
2019-05-14T18:04:56.357Z,19.30
2019-05-14T18:07:28.564Z,19.20
2019-05-14T18:10:00.428Z,19.20
2019-05-14T18:12:32.314Z,19.10
2019-05-14T18:15:04.316Z,19.10
2019-05-14T18:17:38.956Z,19.00
2019-05-14T18:20:10.729Z,19.00
2019-05-14T18:22:42.723Z,19.00
2019-05-14T18:25:14.833Z,18.90
2019-05-14T18:27:49.686Z,18.80
2019-05-14T18:30:20.606Z,18.80
2019-05-14T18:32:52.421Z,18.80
2019-05-14T18:35:24.358Z,18.70
2019-05-14T18:37:56.210Z,18.70
2019-05-14T18:40:29.061Z,18.70
2019-05-14T18:43:02.715Z,18.30
2019-05-14T18:45:34.494Z,18.60
2019-05-14T18:48:08.405Z,18.50
2019-05-14T18:50:39.811Z,18.50
2019-05-14T18:53:13.067Z,18.50
2019-05-14T18:55:48.799Z,18.40
2019-05-14T18:58:20.353Z,18.30
2019-05-14T19:00:52.185Z,18.30
2019-05-14T19:03:24.048Z,18.30
2019-05-14T19:05:58.473Z,18.20
2019-05-14T19:08:29.529Z,18.20
2019-05-14T19:11:01.479Z,18.10
2019-05-14T19:13:34.299Z,17.90
2019-05-14T19:16:08.216Z,18.00
2019-05-14T19:18:39.592Z,18.00
2019-05-14T19:21:12.984Z,17.90
2019-05-14T19:23:45.292Z,17.90
2019-05-14T19:26:31.572Z,17.80
2019-05-14T19:28:50.913Z,17.70
2019-05-14T19:31:22.848Z,17.70
2019-05-14T19:33:54.682Z,17.60
2019-05-14T19:36:28.136Z,17.60
2019-05-14T19:39:00.006Z,17.50
2019-05-14T19:41:31.899Z,17.50
2019-05-14T19:44:03.702Z,17.40
2019-05-14T19:46:35.618Z,17.40
2019-05-14T19:49:08.185Z,17.30
2019-05-14T19:51:40.237Z,17.30
2019-05-14T19:54:12.314Z,17.20
2019-05-14T19:56:55.558Z,17.20
2019-05-14T19:59:18.310Z,17.10
2019-05-14T20:01:50.333Z,17.00
2019-05-14T20:04:22.198Z,17.00
2019-05-14T20:06:54.053Z,16.90
2019-05-14T20:09:27.983Z,16.90
2019-05-14T20:11:59.449Z,16.80
2019-05-14T20:14:31.239Z,16.80
2019-05-14T20:17:02.969Z,16.70
2019-05-14T20:19:34.733Z,16.60
2019-05-14T20:22:06.514Z,16.60
2019-05-14T20:24:41.563Z,16.60
2019-05-14T20:27:12.580Z,16.50
2019-05-14T20:29:44.327Z,16.50
2019-05-14T20:32:19.618Z,16.50
2019-05-14T20:34:51.514Z,16.40
2019-05-14T20:37:23.358Z,16.40
2019-05-14T20:39:55.246Z,16.30
2019-05-14T20:42:28.986Z,16.30
2019-05-14T20:45:02.237Z,16.20
2019-05-14T20:47:34.143Z,16.20
2019-05-14T20:50:08.946Z,16.20
2019-05-14T20:52:41.822Z,16.10
2019-05-14T20:55:14.372Z,15.30
2019-05-14T20:57:48.357Z,16.00
2019-05-14T21:00:20.178Z,16.00
2019-05-14T21:02:51.897Z,15.90
2019-05-14T21:05:23.694Z,15.90
2019-05-14T21:07:55.460Z,15.80
2019-05-14T21:10:29.086Z,15.80
2019-05-14T21:13:01.104Z,15.80
2019-05-14T21:15:33.056Z,15.70
2019-05-14T21:18:04.876Z,15.70
2019-05-14T21:20:39.127Z,15.60
2019-05-14T21:23:10.107Z,15.60
2019-05-14T21:25:42.929Z,15.50
2019-05-14T21:28:15.653Z,15.50
2019-05-14T21:30:48.534Z,15.50
2019-05-14T21:33:24.225Z,15.40
2019-05-14T21:35:59.261Z,15.40
2019-05-14T21:38:31.151Z,15.30
2019-05-14T21:41:06.516Z,15.20
2019-05-14T21:43:39.794Z,15.20
2019-05-14T21:46:19.445Z,15.20
2019-05-14T21:48:52.119Z,15.10
2019-05-14T21:51:25.818Z,15.10
2019-05-14T21:54:02.766Z,15.00
2019-05-14T21:56:34.457Z,15.00
2019-05-14T21:59:09.663Z,14.90
2019-05-14T22:01:44.803Z,14.90
2019-05-14T22:04:22.604Z,14.80
2019-05-14T22:06:54.246Z,14.80
2019-05-14T22:09:28.475Z,14.70
2019-05-14T22:12:03.814Z,14.70
2019-05-14T22:14:37.821Z,14.70
2019-05-14T22:17:12.139Z,14.60
2019-05-14T22:19:46.320Z,14.60
2019-05-14T22:22:18.694Z,14.50
2019-05-14T22:24:50.486Z,14.50
2019-05-14T22:27:22.191Z,14.40
2019-05-14T22:29:58.520Z,14.30
2019-05-14T22:32:31.560Z,14.30
2019-05-14T22:35:04.733Z,14.20
2019-05-14T22:37:39.092Z,14.20
2019-05-14T22:40:12.577Z,14.20
2019-05-14T22:42:47.033Z,14.10
2019-05-14T22:45:21.950Z,14.00
2019-05-14T22:47:58.968Z,14.00
2019-05-14T22:50:31.465Z,14.00
2019-05-14T22:53:09.382Z,13.90
2019-05-14T22:55:52.957Z,13.90
2019-05-14T22:58:26.062Z,13.80
2019-05-14T23:01:13.228Z,13.80
2019-05-14T23:03:32.657Z,13.80
2019-05-14T23:06:04.451Z,13.70
2019-05-14T23:08:36.154Z,13.70
2019-05-14T23:11:08.640Z,13.70
2019-05-14T23:13:40.421Z,13.70
2019-05-14T23:16:12.192Z,13.70
2019-05-14T23:18:43.940Z,13.70
2019-05-14T23:21:17.138Z,13.70
2019-05-14T23:23:48.832Z,13.60
2019-05-14T23:26:20.698Z,13.60
2019-05-14T23:28:52.365Z,13.60
2019-05-14T23:31:25.169Z,13.60
2019-05-14T23:33:58.610Z,13.60
2019-05-14T23:36:30.500Z,13.60
2019-05-14T23:41:29.986Z,13.60
2019-05-14T23:44:01.778Z,13.60
2019-05-14T23:46:33.839Z,13.60
2019-05-14T23:49:05.682Z,13.50
2019-05-14T23:51:38.558Z,13.50
2019-05-14T23:54:10.616Z,13.50
2019-05-14T23:56:42.495Z,13.50
2019-05-14T23:59:14.337Z,13.40
